PWSweather.com
Personal Weather Stations
Station Observations
KNCCHINA3
Red Tractor Trail, China Grove, NC 28023

Red Tractor TrailChina Grove, NC 28023

Lat: 35.59751, Lon: -80.60201

Elevation: 800

Station Type: Oregon Scientific WMR 968

http://www.joesweathergarage.com

High Low Average
Temperature 70.1°F21.2°C 41.4°F5.2°C 51.8°F11.0°C
Dew Point 44.3°F6.8°C 31.5°F-0.3°C 37.7°F3.2°C
Winds 9.8 mph 15.8 kmh Calm Calm 3.0 mph SE4.8 kmh SE
Wind Gusts 15.6 mph25.1 kmh -- 5.0 mph8.0 kmh
Humidity 91% 37% 61%
Pressure 30.15 in1021.0 mb 29.97 in1014.9 mb -
Precipitation 0.00 in0.0 mm - -
Hour Temp Dew Point Humidity Winds Wind Gusts Pressure Precip Precip Rate Daily Precip Total
12:02 AM 43.4°F6.3°C 31.3°F-0.4°C 62% 4.0 mph SE6.4 kmh SE 5.0 mph8.0 kmh 30.03 in1016.9 mb 0.00 in0.0 mm 0.00 in0.0 mm 0.00 in0.0 mm
12:07 AM 43.6°F6.4°C 31.0°F-0.6°C 61% 3.1 mph ESE5.0 kmh ESE 5.0 mph8.0 kmh 30.03 in1016.9 mb 0.00 in0.0 mm 0.00 in0.0 mm 0.00 in0.0 mm
12:12 AM 43.6°F6.4°C 31.0°F-0.6°C 61% 2.8 mph ESE4.5 kmh ESE 5.0 mph8.0 kmh 30.03 in1016.9 mb 0.00 in0.0 mm 0.00 in0.0 mm 0.00 in0.0 mm
12:18 AM 43.8°F6.6°C 31.6°F-0.2°C 62% 2.3 mph ESE3.7 kmh ESE 4.0 mph6.4 kmh 30.03 in1016.9 mb 0.00 in0.0 mm 0.00 in0.0 mm 0.00 in0.0 mm
12:23 AM 43.6°F6.4°C 32.2°F0.1°C 64% Calm Calm 2.6 mph4.2 kmh 30.06 in1017.9 mb 0.00 in0.0 mm 0.00 in0.0 mm 0.00 in0.0 mm
12:28 AM 43.6°F6.4°C 31.4°F-0.3°C 62% Calm Calm 2.2 mph3.5 kmh 30.06 in1017.9 mb 0.00 in0.0 mm 0.00 in0.0 mm 0.00 in0.0 mm
12:33 AM 43.6°F6.4°C 32.2°F0.1°C 64% Calm Calm -- 30.06 in1017.9 mb 0.00 in0.0 mm 0.00 in0.0 mm 0.00 in0.0 mm
12:40 AM 43.6°F6.4°C 31.8°F-0.1°C 63% Calm Calm 3.2 mph5.1 kmh 30.00 in1015.9 mb 0.00 in0.0 mm 0.00 in0.0 mm 0.00 in0.0 mm
12:46 AM 43.4°F6.3°C 32.0°F0.0°C 64% 2.5 mph ESE4.0 kmh ESE 3.2 mph5.1 kmh 30.00 in1015.9 mb 0.00 in0.0 mm 0.00 in0.0 mm 0.00 in0.0 mm
12:51 AM 43.4°F6.3°C 31.7°F-0.2°C 63% 3.2 mph ESE5.1 kmh ESE 4.0 mph6.4 kmh 30.00 in1015.9 mb 0.00 in0.0 mm 0.00 in0.0 mm 0.00 in0.0 mm
12:56 AM 43.2°F6.2°C 31.5°F-0.3°C 63% 2.5 mph ESE4.0 kmh ESE 4.0 mph6.4 kmh 30.03 in1016.9 mb 0.00 in0.0 mm 0.00 in0.0 mm 0.00 in0.0 mm
01:01 AM 43.2°F6.2°C 31.5°F-0.3°C 63% 3.5 mph ESE5.6 kmh ESE 4.0 mph6.4 kmh 30.03 in1016.9 mb 0.00 in0.0 mm 0.00 in0.0 mm 0.00 in0.0 mm
01:06 AM 43.2°F6.2°C 31.9°F-0.1°C 64% 2.2 mph ESE3.5 kmh ESE 4.4 mph7.1 kmh 30.03 in1016.9 mb 0.00 in0.0 mm 0.00 in0.0 mm 0.00 in0.0 mm
01:12 AM 43.2°F6.2°C 33.0°F0.6°C 67% 4.4 mph W7.1 kmh W 5.0 mph8.0 kmh 30.03 in1016.9 mb 0.00 in0.0 mm 0.00 in0.0 mm 0.00 in0.0 mm
01:17 AM 43.2°F6.2°C 34.1°F1.2°C 70% Calm Calm 5.0 mph8.0 kmh 30.03 in1016.9 mb 0.00 in0.0 mm 0.00 in0.0 mm 0.00 in0.0 mm
01:22 AM 42.9°F6.1°C 33.1°F0.6°C 68% 4.7 mph ESE7.6 kmh ESE 5.0 mph8.0 kmh 30.03 in1016.9 mb 0.00 in0.0 mm 0.00 in0.0 mm 0.00 in0.0 mm
01:27 AM 42.9°F6.1°C 33.1°F0.6°C 68% Calm Calm 5.0 mph8.0 kmh 30.03 in1016.9 mb 0.00 in0.0 mm 0.00 in0.0 mm 0.00 in0.0 mm
01:32 AM 42.9°F6.1°C 33.1°F0.6°C 68% 2.0 mph ESE3.2 kmh ESE 5.0 mph8.0 kmh 30.03 in1016.9 mb 0.00 in0.0 mm 0.00 in0.0 mm 0.00 in0.0 mm
01:37 AM 43.1°F6.2°C 32.5°F0.3°C 66% 3.5 mph SSE5.6 kmh SSE 5.0 mph8.0 kmh 30.03 in1016.9 mb 0.00 in0.0 mm 0.00 in0.0 mm 0.00 in0.0 mm
01:42 AM 43.1°F6.2°C 32.2°F0.1°C 65% 2.8 mph SE4.5 kmh SE 5.0 mph8.0 kmh 30.03 in1016.9 mb 0.00 in0.0 mm 0.00 in0.0 mm 0.00 in0.0 mm
01:47 AM 43.1°F6.2°C 32.5°F0.3°C 66% 3.3 mph E5.3 kmh E 5.0 mph8.0 kmh 30.03 in1016.9 mb 0.00 in0.0 mm 0.00 in0.0 mm 0.00 in0.0 mm
01:53 AM 42.9°F6.1°C 32.7°F0.4°C 67% 2.9 mph E4.7 kmh E 5.0 mph8.0 kmh 30.00 in1015.9 mb 0.00 in0.0 mm 0.00 in0.0 mm 0.00 in0.0 mm
01:58 AM 42.9°F6.1°C 32.7°F0.4°C 67% Calm Calm 3.2 mph5.1 kmh 30.00 in1015.9 mb 0.00 in0.0 mm 0.00 in0.0 mm 0.00 in0.0 mm
02:03 AM 42.9°F6.1°C 32.3°F0.2°C 66% Calm Calm 2.6 mph4.2 kmh 30.00 in1015.9 mb 0.00 in0.0 mm 0.00 in0.0 mm 0.00 in0.0 mm
02:08 AM 42.9°F6.1°C 32.0°F0.0°C 65% Calm Calm -- 30.00 in1015.9 mb 0.00 in0.0 mm 0.00 in0.0 mm 0.00 in0.0 mm
02:14 AM 43.1°F6.2°C 31.8°F-0.1°C 64% Calm Calm -- 30.00 in1015.9 mb 0.00 in0.0 mm 0.00 in0.0 mm 0.00 in0.0 mm
02:19 AM 42.9°F6.1°C 32.0°F0.0°C 65% Calm Calm -- 30.00 in1015.9 mb 0.00 in0.0 mm 0.00 in0.0 mm 0.00 in0.0 mm
02:24 AM 42.9°F6.1°C 32.0°F0.0°C 65% 3.2 mph SSE5.1 kmh SSE 4.0 mph6.4 kmh 30.00 in1015.9 mb 0.00 in0.0 mm 0.00 in0.0 mm 0.00 in0.0 mm
02:29 AM 42.9°F6.1°C 32.7°F0.4°C 67% 3.6 mph SSE5.8 kmh SSE 4.4 mph7.1 kmh 30.00 in1015.9 mb 0.00 in0.0 mm 0.00 in0.0 mm 0.00 in0.0 mm
02:34 AM 42.7°F5.9°C 32.5°F0.3°C 67% 3.0 mph SSE4.8 kmh SSE 4.4 mph7.1 kmh 30.00 in1015.9 mb 0.00 in0.0 mm 0.00 in0.0 mm 0.00 in0.0 mm
02:39 AM 42.7°F5.9°C 32.2°F0.1°C 66% Calm Calm 4.4 mph7.1 kmh 30.00 in1015.9 mb 0.00 in0.0 mm 0.00 in0.0 mm 0.00 in0.0 mm
02:44 AM 42.2°F5.7°C 32.8°F0.4°C 69% Calm Calm -- 30.00 in1015.9 mb 0.00 in0.0 mm 0.00 in0.0 mm 0.00 in0.0 mm
02:49 AM 41.8°F5.4°C 31.7°F-0.2°C 67% Calm Calm -- 30.00 in1015.9 mb 0.00 in0.0 mm 0.00 in0.0 mm 0.00 in0.0 mm
02:54 AM 41.8°F5.4°C 32.0°F0.0°C 68% Calm Calm -- 30.00 in1015.9 mb 0.00 in0.0 mm 0.00 in0.0 mm 0.00 in0.0 mm
02:59 AM 41.6°F5.3°C 32.2°F0.1°C 69% Calm Calm -- 30.00 in1015.9 mb 0.00 in0.0 mm 0.00 in0.0 mm 0.00 in0.0 mm
03:04 AM 41.4°F5.2°C 32.0°F0.0°C 69% 2.2 mph SSE3.5 kmh SSE 2.2 mph3.5 kmh 30.00 in1015.9 mb 0.00 in0.0 mm 0.00 in0.0 mm 0.00 in0.0 mm
03:10 AM 41.6°F5.3°C 31.8°F-0.1°C 68% 2.3 mph SSE3.7 kmh SSE 4.4 mph7.1 kmh 30.00 in1015.9 mb 0.00 in0.0 mm 0.00 in0.0 mm 0.00 in0.0 mm
03:15 AM 41.8°F5.4°C 32.0°F0.0°C 68% 3.5 mph S5.6 kmh S 5.0 mph8.0 kmh 30.00 in1015.9 mb 0.00 in0.0 mm 0.00 in0.0 mm 0.00 in0.0 mm
03:20 AM 42.0°F5.6°C 31.9°F-0.1°C 67% 3.5 mph S5.6 kmh S 5.0 mph8.0 kmh 30.00 in1015.9 mb 0.00 in0.0 mm 0.00 in0.0 mm 0.00 in0.0 mm
03:25 AM 42.0°F5.6°C 31.9°F-0.1°C 67% 2.3 mph S3.7 kmh S 5.0 mph8.0 kmh 30.00 in1015.9 mb 0.00 in0.0 mm 0.00 in0.0 mm 0.00 in0.0 mm
03:30 AM 42.0°F5.6°C 31.9°F-0.1°C 67% 3.1 mph S5.0 kmh S 4.0 mph6.4 kmh 30.00 in1015.9 mb 0.00 in0.0 mm 0.00 in0.0 mm 0.00 in0.0 mm
03:35 AM 41.8°F5.4°C 31.7°F-0.2°C 67% 2.7 mph S4.3 kmh S 4.4 mph7.1 kmh 30.00 in1015.9 mb 0.00 in0.0 mm 0.00 in0.0 mm 0.00 in0.0 mm
03:40 AM 41.6°F5.3°C 31.5°F-0.3°C 67% 2.6 mph SSE4.2 kmh SSE 4.4 mph7.1 kmh 30.00 in1015.9 mb 0.00 in0.0 mm 0.00 in0.0 mm 0.00 in0.0 mm
03:48 AM 41.6°F5.3°C 31.5°F-0.3°C 67% 2.4 mph SSE3.9 kmh SSE 5.4 mph8.7 kmh 30.00 in1015.9 mb 0.00 in0.0 mm 0.00 in0.0 mm 0.00 in0.0 mm
03:53 AM 41.6°F5.3°C 31.8°F-0.1°C 68% 3.9 mph SSE6.3 kmh SSE 5.4 mph8.7 kmh 29.97 in1014.9 mb 0.00 in0.0 mm 0.00 in0.0 mm 0.00 in0.0 mm
03:58 AM 41.6°F5.3°C 31.8°F-0.1°C 68% 3.7 mph SSE6.0 kmh SSE 4.4 mph7.1 kmh 29.97 in1014.9 mb 0.00 in0.0 mm 0.00 in0.0 mm 0.00 in0.0 mm
04:03 AM 41.8°F5.4°C 32.0°F0.0°C 68% 2.4 mph S3.9 kmh S 4.4 mph7.1 kmh 29.97 in1014.9 mb 0.00 in0.0 mm 0.00 in0.0 mm 0.00 in0.0 mm
04:08 AM 41.8°F5.4°C 32.4°F0.2°C 69% Calm Calm 4.4 mph7.1 kmh 30.00 in1015.9 mb 0.00 in0.0 mm 0.00 in0.0 mm 0.00 in0.0 mm
04:13 AM 41.6°F5.3°C 32.6°F0.3°C 70% Calm Calm 2.2 mph3.5 kmh 30.00 in1015.9 mb 0.00 in0.0 mm 0.00 in0.0 mm 0.00 in0.0 mm
04:18 AM 42.0°F5.6°C 32.2°F0.1°C 68% 2.7 mph S4.3 kmh S 6.2 mph10.0 kmh 30.00 in1015.9 mb 0.00 in0.0 mm 0.00 in0.0 mm 0.00 in0.0 mm
04:23 AM 42.2°F5.7°C 32.4°F0.2°C 68% 3.6 mph S5.8 kmh S 6.2 mph10.0 kmh 30.00 in1015.9 mb 0.00 in0.0 mm 0.00 in0.0 mm 0.00 in0.0 mm
04:29 AM 42.2°F5.7°C 32.0°F0.0°C 67% 3.8 mph SSE6.1 kmh SSE 5.4 mph8.7 kmh 30.00 in1015.9 mb 0.00 in0.0 mm 0.00 in0.0 mm 0.00 in0.0 mm
04:34 AM 42.2°F5.7°C 32.4°F0.2°C 68% 2.6 mph SSE4.2 kmh SSE 5.4 mph8.7 kmh 30.00 in1015.9 mb 0.00 in0.0 mm 0.00 in0.0 mm 0.00 in0.0 mm
04:41 AM 42.3°F5.7°C 32.1°F0.1°C 67% 2.7 mph SSE4.3 kmh SSE 4.0 mph6.4 kmh 30.00 in1015.9 mb 0.00 in0.0 mm 0.00 in0.0 mm 0.00 in0.0 mm
04:46 AM 42.3°F5.7°C 32.1°F0.1°C 67% 3.5 mph SSE5.6 kmh SSE 5.0 mph8.0 kmh 30.00 in1015.9 mb 0.00 in0.0 mm 0.00 in0.0 mm 0.00 in0.0 mm
04:51 AM 42.3°F5.7°C 32.1°F0.1°C 67% Calm Calm 5.0 mph8.0 kmh 30.00 in1015.9 mb 0.00 in0.0 mm 0.00 in0.0 mm 0.00 in0.0 mm
04:56 AM 42.3°F5.7°C 31.8°F-0.1°C 66% 2.3 mph SSE3.7 kmh SSE 5.0 mph8.0 kmh 29.97 in1014.9 mb 0.00 in0.0 mm 0.00 in0.0 mm 0.00 in0.0 mm
05:01 AM 42.3°F5.7°C 31.8°F-0.1°C 66% 4.3 mph SE6.9 kmh SE 5.4 mph8.7 kmh 29.97 in1014.9 mb 0.00 in0.0 mm 0.00 in0.0 mm 0.00 in0.0 mm
05:06 AM 42.3°F5.7°C 31.8°F-0.1°C 66% 2.5 mph SE4.0 kmh SE 6.2 mph10.0 kmh 29.97 in1014.9 mb 0.00 in0.0 mm 0.00 in0.0 mm 0.00 in0.0 mm
05:11 AM 42.5°F5.8°C 32.0°F0.0°C 66% 5.7 mph SE9.2 kmh SE 6.8 mph10.9 kmh 29.97 in1014.9 mb 0.00 in0.0 mm 0.00 in0.0 mm 0.00 in0.0 mm
05:16 AM 42.5°F5.8°C 32.0°F0.0°C 66% 2.4 mph SSE3.9 kmh SSE 6.8 mph10.9 kmh 29.97 in1014.9 mb 0.00 in0.0 mm 0.00 in0.0 mm 0.00 in0.0 mm
05:21 AM 42.7°F5.9°C 32.2°F0.1°C 66% 2.4 mph SSE3.9 kmh SSE 5.0 mph8.0 kmh 29.97 in1014.9 mb 0.00 in0.0 mm 0.00 in0.0 mm 0.00 in0.0 mm
05:26 AM 42.7°F5.9°C 32.2°F0.1°C 66% 3.3 mph SSE5.3 kmh SSE 5.0 mph8.0 kmh 29.97 in1014.9 mb 0.00 in0.0 mm 0.00 in0.0 mm 0.00 in0.0 mm
05:31 AM 42.7°F5.9°C 32.2°F0.1°C 66% 2.5 mph SSE4.0 kmh SSE 5.4 mph8.7 kmh 29.97 in1014.9 mb 0.00 in0.0 mm 0.00 in0.0 mm 0.00 in0.0 mm
05:36 AM 42.7°F5.9°C 32.5°F0.3°C 67% Calm Calm 5.4 mph8.7 kmh 29.97 in1014.9 mb 0.00 in0.0 mm 0.00 in0.0 mm 0.00 in0.0 mm
05:43 AM 42.7°F5.9°C 32.5°F0.3°C 67% Calm Calm -- 30.00 in1015.9 mb 0.00 in0.0 mm 0.00 in0.0 mm 0.00 in0.0 mm
05:48 AM 42.7°F5.9°C 32.9°F0.5°C 68% Calm Calm -- 30.00 in1015.9 mb 0.00 in0.0 mm 0.00 in0.0 mm 0.00 in0.0 mm
05:54 AM 42.5°F5.8°C 32.7°F0.4°C 68% Calm Calm -- 30.03 in1016.9 mb 0.00 in0.0 mm 0.00 in0.0 mm 0.00 in0.0 mm
05:59 AM 42.7°F5.9°C 32.5°F0.3°C 67% Calm Calm -- 30.03 in1016.9 mb 0.00 in0.0 mm 0.00 in0.0 mm 0.00 in0.0 mm
06:04 AM 42.7°F5.9°C 32.9°F0.5°C 68% 1.9 mph SSE3.1 kmh SSE 2.2 mph3.5 kmh 30.03 in1016.9 mb 0.00 in0.0 mm 0.00 in0.0 mm 0.00 in0.0 mm
06:09 AM 42.7°F5.9°C 32.9°F0.5°C 68% Calm Calm 2.2 mph3.5 kmh 30.03 in1016.9 mb 0.00 in0.0 mm 0.00 in0.0 mm 0.00 in0.0 mm
06:15 AM 42.5°F5.8°C 33.1°F0.6°C 69% 2.3 mph SSE3.7 kmh SSE 2.6 mph4.2 kmh 30.03 in1016.9 mb 0.00 in0.0 mm 0.00 in0.0 mm 0.00 in0.0 mm
06:20 AM 42.5°F5.8°C 32.7°F0.4°C 68% 3.1 mph ESE5.0 kmh ESE 4.0 mph6.4 kmh 30.03 in1016.9 mb 0.00 in0.0 mm 0.00 in0.0 mm 0.00 in0.0 mm
06:26 AM 42.5°F5.8°C 33.1°F0.6°C 69% Calm Calm 4.0 mph6.4 kmh 30.03 in1016.9 mb 0.00 in0.0 mm 0.00 in0.0 mm 0.00 in0.0 mm
06:31 AM 42.5°F5.8°C 33.1°F0.6°C 69% Calm Calm -- 30.03 in1016.9 mb 0.00 in0.0 mm 0.00 in0.0 mm 0.00 in0.0 mm
06:36 AM 42.5°F5.8°C 33.1°F0.6°C 69% Calm Calm -- 30.03 in1016.9 mb 0.00 in0.0 mm 0.00 in0.0 mm 0.00 in0.0 mm
06:41 AM 42.7°F5.9°C 32.9°F0.5°C 68% Calm Calm -- 30.03 in1016.9 mb 0.00 in0.0 mm 0.00 in0.0 mm 0.00 in0.0 mm
06:46 AM 42.7°F5.9°C 33.3°F0.7°C 69% Calm Calm -- 30.03 in1016.9 mb 0.00 in0.0 mm 0.00 in0.0 mm 0.00 in0.0 mm
06:51 AM 42.5°F5.8°C 33.1°F0.6°C 69% Calm Calm -- 30.03 in1016.9 mb 0.00 in0.0 mm 0.00 in0.0 mm 0.00 in0.0 mm
06:56 AM 42.3°F5.7°C 33.6°F0.9°C 71% Calm Calm -- 30.06 in1017.9 mb 0.00 in0.0 mm 0.00 in0.0 mm 0.00 in0.0 mm
07:01 AM 42.3°F5.7°C 33.6°F0.9°C 71% Calm Calm -- 30.06 in1017.9 mb 0.00 in0.0 mm 0.00 in0.0 mm 0.00 in0.0 mm
07:06 AM 42.3°F5.7°C 33.9°F1.1°C 72% Calm Calm -- 30.06 in1017.9 mb 0.00 in0.0 mm 0.00 in0.0 mm 0.00 in0.0 mm
07:11 AM 42.3°F5.7°C 33.9°F1.1°C 72% Calm Calm -- 30.06 in1017.9 mb 0.00 in0.0 mm 0.00 in0.0 mm 0.00 in0.0 mm
07:16 AM 42.3°F5.7°C 33.9°F1.1°C 72% Calm Calm -- 30.06 in1017.9 mb 0.00 in0.0 mm 0.00 in0.0 mm 0.00 in0.0 mm
07:21 AM 42.3°F5.7°C 33.9°F1.1°C 72% 3.7 mph ENE6.0 kmh ENE 4.0 mph6.4 kmh 30.06 in1017.9 mb 0.00 in0.0 mm 0.00 in0.0 mm 0.00 in0.0 mm
07:26 AM 42.3°F5.7°C 34.3°F1.3°C 73% 2.6 mph ENE4.2 kmh ENE 4.0 mph6.4 kmh 30.09 in1019.0 mb 0.00 in0.0 mm 0.00 in0.0 mm 0.00 in0.0 mm
07:31 AM 42.3°F5.7°C 34.6°F1.4°C 74% Calm Calm 3.2 mph5.1 kmh 30.09 in1019.0 mb 0.00 in0.0 mm 0.00 in0.0 mm 0.00 in0.0 mm
07:36 AM 42.3°F5.7°C 34.6°F1.4°C 74% Calm Calm 3.2 mph5.1 kmh 30.09 in1019.0 mb 0.00 in0.0 mm 0.00 in0.0 mm 0.00 in0.0 mm
07:41 AM 42.3°F5.7°C 34.6°F1.4°C 74% Calm Calm -- 30.09 in1019.0 mb 0.00 in0.0 mm 0.00 in0.0 mm 0.00 in0.0 mm
07:48 AM 42.5°F5.8°C 35.1°F1.7°C 75% 2.3 mph ENE3.7 kmh ENE 3.2 mph5.1 kmh 30.09 in1019.0 mb 0.00 in0.0 mm 0.00 in0.0 mm 0.00 in0.0 mm
07:53 AM 42.5°F5.8°C 35.1°F1.7°C 75% 3.1 mph ENE5.0 kmh ENE 4.0 mph6.4 kmh 30.06 in1017.9 mb 0.00 in0.0 mm 0.00 in0.0 mm 0.00 in0.0 mm
07:58 AM 42.5°F5.8°C 35.1°F1.7°C 75% 2.5 mph ENE4.0 kmh ENE 4.0 mph6.4 kmh 30.06 in1017.9 mb 0.00 in0.0 mm 0.00 in0.0 mm 0.00 in0.0 mm
08:03 AM 42.5°F5.8°C 35.1°F1.7°C 75% Calm Calm 4.4 mph7.1 kmh 30.06 in1017.9 mb 0.00 in0.0 mm 0.00 in0.0 mm 0.00 in0.0 mm
08:08 AM 42.5°F5.8°C 35.1°F1.7°C 75% 2.1 mph NE3.4 kmh NE 4.4 mph7.1 kmh 30.06 in1017.9 mb 0.00 in0.0 mm 0.00 in0.0 mm 0.00 in0.0 mm
08:13 AM 42.5°F5.8°C 35.8°F2.1°C 77% Calm Calm 2.6 mph4.2 kmh 30.06 in1017.9 mb 0.00 in0.0 mm 0.00 in0.0 mm 0.00 in0.0 mm
08:19 AM 42.3°F5.7°C 35.6°F2.0°C 77% 2.1 mph NE3.4 kmh NE 2.6 mph4.2 kmh 30.06 in1017.9 mb 0.00 in0.0 mm 0.00 in0.0 mm 0.00 in0.0 mm
08:24 AM 42.3°F5.7°C 36.5°F2.5°C 80% Calm Calm 3.2 mph5.1 kmh 30.09 in1019.0 mb 0.00 in0.0 mm 0.00 in0.0 mm 0.00 in0.0 mm
08:29 AM 42.3°F5.7°C 37.1°F2.8°C 82% 3.9 mph ENE6.3 kmh ENE 6.8 mph10.9 kmh 30.09 in1019.0 mb 0.00 in0.0 mm 0.00 in0.0 mm 0.00 in0.0 mm
08:34 AM 42.3°F5.7°C 38.6°F3.7°C 87% 2.9 mph S4.7 kmh S 6.8 mph10.9 kmh 30.09 in1019.0 mb 0.00 in0.0 mm 0.00 in0.0 mm 0.00 in0.0 mm
08:40 AM 42.7°F5.9°C 38.4°F3.6°C 85% 2.6 mph E4.2 kmh E 5.4 mph8.7 kmh 30.09 in1019.0 mb 0.00 in0.0 mm 0.00 in0.0 mm 0.00 in0.0 mm
08:45 AM 42.7°F5.9°C 38.4°F3.6°C 85% 2.2 mph E3.5 kmh E 3.2 mph5.1 kmh 30.09 in1019.0 mb 0.00 in0.0 mm 0.00 in0.0 mm 0.00 in0.0 mm
08:51 AM 42.9°F6.1°C 38.9°F3.8°C 86% Calm Calm 4.0 mph6.4 kmh 30.09 in1019.0 mb 0.00 in0.0 mm 0.00 in0.0 mm 0.00 in0.0 mm
08:56 AM 43.1°F6.2°C 39.1°F3.9°C 86% 2.2 mph SSE3.5 kmh SSE 4.0 mph6.4 kmh 30.06 in1017.9 mb 0.00 in0.0 mm 0.00 in0.0 mm 0.00 in0.0 mm
09:02 AM 43.4°F6.3°C 39.7°F4.3°C 87% 1.9 mph SSE3.1 kmh SSE 3.2 mph5.1 kmh 30.06 in1017.9 mb 0.00 in0.0 mm 0.00 in0.0 mm 0.00 in0.0 mm
09:07 AM 44.0°F6.7°C 40.6°F4.8°C 88% 2.9 mph SSE4.7 kmh SSE 4.0 mph6.4 kmh 30.06 in1017.9 mb 0.00 in0.0 mm 0.00 in0.0 mm 0.00 in0.0 mm
09:13 AM 44.1°F6.7°C 41.2°F5.1°C 90% 2.9 mph SSE4.7 kmh SSE 4.0 mph6.4 kmh 30.06 in1017.9 mb 0.00 in0.0 mm 0.00 in0.0 mm 0.00 in0.0 mm
09:18 AM 44.7°F7.1°C 42.1°F5.6°C 91% 2.1 mph SSE3.4 kmh SSE 4.0 mph6.4 kmh 30.06 in1017.9 mb 0.00 in0.0 mm 0.00 in0.0 mm 0.00 in0.0 mm
09:23 AM 45.4°F7.4°C 42.2°F5.7°C 89% Calm Calm 3.2 mph5.1 kmh 30.06 in1017.9 mb 0.00 in0.0 mm 0.00 in0.0 mm 0.00 in0.0 mm
09:28 AM 45.8°F7.7°C 42.9°F6.1°C 90% Calm Calm 2.6 mph4.2 kmh 30.06 in1017.9 mb 0.00 in0.0 mm 0.00 in0.0 mm 0.00 in0.0 mm
09:33 AM 46.3°F7.9°C 42.8°F6.0°C 88% Calm Calm 2.6 mph4.2 kmh 30.06 in1017.9 mb 0.00 in0.0 mm 0.00 in0.0 mm 0.00 in0.0 mm
09:38 AM 47.2°F8.4°C 43.4°F6.3°C 87% Calm Calm -- 30.06 in1017.9 mb 0.00 in0.0 mm 0.00 in0.0 mm 0.00 in0.0 mm
09:44 AM 47.7°F8.7°C 43.6°F6.4°C 86% 3.0 mph ESE4.8 kmh ESE 4.0 mph6.4 kmh 30.06 in1017.9 mb 0.00 in0.0 mm 0.00 in0.0 mm 0.00 in0.0 mm
09:49 AM 48.1°F8.9°C 43.4°F6.3°C 84% 2.9 mph S4.7 kmh S 5.0 mph8.0 kmh 30.06 in1017.9 mb 0.00 in0.0 mm 0.00 in0.0 mm 0.00 in0.0 mm
09:55 AM 48.6°F9.2°C 43.6°F6.4°C 83% 2.7 mph SE4.3 kmh SE 5.8 mph9.3 kmh 30.06 in1017.9 mb 0.00 in0.0 mm 0.00 in0.0 mm 0.00 in0.0 mm
10:00 AM 49.0°F9.4°C 43.7°F6.5°C 82% 3.2 mph ESE5.1 kmh ESE 5.8 mph9.3 kmh 30.06 in1017.9 mb 0.00 in0.0 mm 0.00 in0.0 mm 0.00 in0.0 mm
10:06 AM 49.2°F9.6°C 43.6°F6.4°C 81% 3.7 mph SE6.0 kmh SE 5.4 mph8.7 kmh 30.06 in1017.9 mb 0.00 in0.0 mm 0.00 in0.0 mm 0.00 in0.0 mm
10:11 AM 49.7°F9.8°C 43.4°F6.3°C 79% 2.5 mph E4.0 kmh E 5.4 mph8.7 kmh 30.06 in1017.9 mb 0.00 in0.0 mm 0.00 in0.0 mm 0.00 in0.0 mm
10:17 AM 49.5°F9.7°C 41.9°F5.5°C 75% 3.2 mph SW5.1 kmh SW 5.0 mph8.0 kmh 30.06 in1017.9 mb 0.00 in0.0 mm 0.00 in0.0 mm 0.00 in0.0 mm
10:22 AM 50.4°F10.2°C 42.4°F5.8°C 74% Calm Calm 5.0 mph8.0 kmh 30.12 in1020.0 mb 0.00 in0.0 mm 0.00 in0.0 mm 0.00 in0.0 mm
10:27 AM 50.8°F10.4°C 41.4°F5.2°C 70% Calm Calm 4.0 mph6.4 kmh 30.12 in1020.0 mb 0.00 in0.0 mm 0.00 in0.0 mm 0.00 in0.0 mm
10:32 AM 51.2°F10.7°C 42.5°F5.8°C 72% 6.7 mph SE10.8 kmh SE 9.4 mph15.1 kmh 30.12 in1020.0 mb 0.00 in0.0 mm 0.00 in0.0 mm 0.00 in0.0 mm
10:37 AM 51.5°F10.8°C 42.4°F5.8°C 71% 3.4 mph SE5.5 kmh SE 9.4 mph15.1 kmh 30.09 in1019.0 mb 0.00 in0.0 mm 0.00 in0.0 mm 0.00 in0.0 mm
10:42 AM 51.7°F10.9°C 41.5°F5.3°C 68% 3.4 mph NW5.5 kmh NW 8.0 mph12.9 kmh 30.09 in1019.0 mb 0.00 in0.0 mm 0.00 in0.0 mm 0.00 in0.0 mm
10:47 AM 52.1°F11.2°C 41.1°F5.1°C 66% 2.9 mph SE4.7 kmh SE 8.0 mph12.9 kmh 30.09 in1019.0 mb 0.00 in0.0 mm 0.00 in0.0 mm 0.00 in0.0 mm
10:52 AM 51.9°F11.1°C 40.1°F4.5°C 64% 3.8 mph S6.1 kmh S 7.6 mph12.2 kmh 30.09 in1019.0 mb 0.00 in0.0 mm 0.00 in0.0 mm 0.00 in0.0 mm
10:57 AM 53.0°F11.7°C 41.2°F5.1°C 64% 3.4 mph S5.5 kmh S 8.0 mph12.9 kmh 30.09 in1019.0 mb 0.00 in0.0 mm 0.00 in0.0 mm 0.00 in0.0 mm
11:02 AM 53.0°F11.7°C 39.9°F4.4°C 61% 3.9 mph S6.3 kmh S 9.8 mph15.8 kmh 30.09 in1019.0 mb 0.00 in0.0 mm 0.00 in0.0 mm 0.00 in0.0 mm
11:07 AM 53.0°F11.7°C 39.5°F4.2°C 60% 7.0 mph E11.3 kmh E 12.0 mph19.3 kmh 30.09 in1019.0 mb 0.00 in0.0 mm 0.00 in0.0 mm 0.00 in0.0 mm
11:12 AM 53.1°F11.7°C 39.6°F4.2°C 60% 5.6 mph SE9.0 kmh SE 12.0 mph19.3 kmh 30.09 in1019.0 mb 0.00 in0.0 mm 0.00 in0.0 mm 0.00 in0.0 mm
11:19 AM 53.5°F11.9°C 37.7°F3.2°C 55% 7.3 mph SSE11.7 kmh SSE 12.6 mph20.3 kmh 30.09 in1019.0 mb 0.00 in0.0 mm 0.00 in0.0 mm 0.00 in0.0 mm
11:24 AM 54.6°F12.6°C 38.7°F3.7°C 55% 6.0 mph SSE9.7 kmh SSE 13.0 mph20.9 kmh 30.09 in1019.0 mb 0.00 in0.0 mm 0.00 in0.0 mm 0.00 in0.0 mm
11:30 AM 56.2°F13.4°C 39.2°F4.0°C 53% 7.6 mph SE12.2 kmh SE 13.0 mph20.9 kmh 30.09 in1019.0 mb 0.00 in0.0 mm 0.00 in0.0 mm 0.00 in0.0 mm
11:35 AM 57.1°F13.9°C 39.6°F4.2°C 52% 4.6 mph E7.4 kmh E 11.2 mph18.0 kmh 30.09 in1019.0 mb 0.00 in0.0 mm 0.00 in0.0 mm 0.00 in0.0 mm
11:40 AM 57.1°F13.9°C 38.5°F3.6°C 50% 5.9 mph SSW9.5 kmh SSW 10.8 mph17.4 kmh 30.09 in1019.0 mb 0.00 in0.0 mm 0.00 in0.0 mm 0.00 in0.0 mm
11:45 AM 57.6°F14.2°C 39.0°F3.9°C 50% 5.7 mph SE9.2 kmh SE 11.6 mph18.7 kmh 30.09 in1019.0 mb 0.00 in0.0 mm 0.00 in0.0 mm 0.00 in0.0 mm
11:50 AM 57.3°F14.1°C 37.1°F2.8°C 47% 9.0 mph SSE14.5 kmh SSE 12.6 mph20.3 kmh 30.09 in1019.0 mb 0.00 in0.0 mm 0.00 in0.0 mm 0.00 in0.0 mm
11:55 AM 56.7°F13.7°C 37.1°F2.8°C 48% 6.4 mph SE10.3 kmh SE 12.6 mph20.3 kmh 30.06 in1017.9 mb 0.00 in0.0 mm 0.00 in0.0 mm 0.00 in0.0 mm
12:00 PM 57.3°F14.1°C 37.1°F2.8°C 47% 5.4 mph SW8.7 kmh SW 12.6 mph20.3 kmh 30.06 in1017.9 mb 0.00 in0.0 mm 0.00 in0.0 mm 0.00 in0.0 mm
12:05 PM 57.6°F14.2°C 37.4°F3.0°C 47% 8.2 mph S13.2 kmh S 10.8 mph17.4 kmh 30.06 in1017.9 mb 0.00 in0.0 mm 0.00 in0.0 mm 0.00 in0.0 mm
12:10 PM 58.4°F14.7°C 37.5°F3.1°C 46% 6.2 mph S10.0 kmh S 10.8 mph17.4 kmh 30.09 in1019.0 mb 0.00 in0.0 mm 0.00 in0.0 mm 0.00 in0.0 mm
12:15 PM 58.5°F14.7°C 37.6°F3.1°C 46% 8.7 mph ESE14.0 kmh ESE 14.4 mph23.2 kmh 30.09 in1019.0 mb 0.00 in0.0 mm 0.00 in0.0 mm 0.00 in0.0 mm
12:21 PM 58.9°F14.9°C 38.0°F3.3°C 46% 3.8 mph E6.1 kmh E 14.4 mph23.2 kmh 30.09 in1019.0 mb 0.00 in0.0 mm 0.00 in0.0 mm 0.00 in0.0 mm
12:26 PM 59.1°F15.1°C 37.6°F3.1°C 45% 6.1 mph SW9.8 kmh SW 9.4 mph15.1 kmh 30.09 in1019.0 mb 0.00 in0.0 mm 0.00 in0.0 mm 0.00 in0.0 mm
12:31 PM 59.4°F15.2°C 37.9°F3.3°C 45% 4.2 mph S6.8 kmh S 10.8 mph17.4 kmh 30.09 in1019.0 mb 0.00 in0.0 mm 0.00 in0.0 mm 0.00 in0.0 mm
12:36 PM 59.6°F15.3°C 38.0°F3.3°C 45% 6.4 mph S10.3 kmh S 10.8 mph17.4 kmh 30.09 in1019.0 mb 0.00 in0.0 mm 0.00 in0.0 mm 0.00 in0.0 mm
12:44 PM 60.8°F16.0°C 38.6°F3.7°C 44% 5.5 mph S8.9 kmh S 9.8 mph15.8 kmh 30.09 in1019.0 mb 0.00 in0.0 mm 0.00 in0.0 mm 0.00 in0.0 mm
12:49 PM 60.8°F16.0°C 38.6°F3.7°C 44% 5.9 mph S9.5 kmh S 9.8 mph15.8 kmh 30.09 in1019.0 mb 0.00 in0.0 mm 0.00 in0.0 mm 0.00 in0.0 mm
12:54 PM 60.8°F16.0°C 38.0°F3.3°C 43% 5.7 mph SSE9.2 kmh SSE 10.8 mph17.4 kmh 30.09 in1019.0 mb 0.00 in0.0 mm 0.00 in0.0 mm 0.00 in0.0 mm
12:59 PM 61.0°F16.1°C 38.2°F3.4°C 43% 6.9 mph SE11.1 kmh SE 14.4 mph23.2 kmh 30.09 in1019.0 mb 0.00 in0.0 mm 0.00 in0.0 mm 0.00 in0.0 mm
01:05 PM 61.3°F16.3°C 37.9°F3.3°C 42% 6.6 mph SSW10.6 kmh SSW 14.4 mph23.2 kmh 30.09 in1019.0 mb 0.00 in0.0 mm 0.00 in0.0 mm 0.00 in0.0 mm
01:10 PM 62.2°F16.8°C 38.7°F3.7°C 42% 5.3 mph SE8.5 kmh SE 10.8 mph17.4 kmh 30.06 in1017.9 mb 0.00 in0.0 mm 0.00 in0.0 mm 0.00 in0.0 mm
01:15 PM 62.2°F16.8°C 38.7°F3.7°C 42% 6.0 mph SE9.7 kmh SE 11.2 mph18.0 kmh 30.06 in1017.9 mb 0.00 in0.0 mm 0.00 in0.0 mm 0.00 in0.0 mm
01:20 PM 61.9°F16.6°C 37.1°F2.8°C 40% 7.7 mph ESE12.4 kmh ESE 13.0 mph20.9 kmh 30.06 in1017.9 mb 0.00 in0.0 mm 0.00 in0.0 mm 0.00 in0.0 mm
01:26 PM 61.5°F16.4°C 36.8°F2.7°C 40% 6.9 mph SW11.1 kmh SW 13.0 mph20.9 kmh 30.06 in1017.9 mb 0.00 in0.0 mm 0.00 in0.0 mm 0.00 in0.0 mm
01:31 PM 62.0°F16.7°C 37.9°F3.3°C 41% 2.6 mph NE4.2 kmh NE 7.2 mph11.6 kmh 30.06 in1017.9 mb 0.00 in0.0 mm 0.00 in0.0 mm 0.00 in0.0 mm
01:36 PM 63.3°F17.4°C 39.0°F3.9°C 41% 4.0 mph S6.4 kmh S 7.2 mph11.6 kmh 30.06 in1017.9 mb 0.00 in0.0 mm 0.00 in0.0 mm 0.00 in0.0 mm
01:41 PM 63.3°F17.4°C 39.0°F3.9°C 41% 6.2 mph SSE10.0 kmh SSE 8.6 mph13.8 kmh 30.06 in1017.9 mb 0.00 in0.0 mm 0.00 in0.0 mm 0.00 in0.0 mm
01:46 PM 63.7°F17.6°C 38.7°F3.7°C 40% 5.7 mph E9.2 kmh E 8.0 mph12.9 kmh 30.06 in1017.9 mb 0.00 in0.0 mm 0.00 in0.0 mm 0.00 in0.0 mm
01:51 PM 63.7°F17.6°C 39.4°F4.1°C 41% 4.6 mph SE7.4 kmh SE 7.6 mph12.2 kmh 30.06 in1017.9 mb 0.00 in0.0 mm 0.00 in0.0 mm 0.00 in0.0 mm
01:57 PM 62.4°F16.9°C 37.6°F3.1°C 40% 5.3 mph S8.5 kmh S 8.6 mph13.8 kmh 30.06 in1017.9 mb 0.00 in0.0 mm 0.00 in0.0 mm 0.00 in0.0 mm
02:02 PM 61.5°F16.4°C 37.4°F3.0°C 41% 6.6 mph SSE10.6 kmh SSE 8.6 mph13.8 kmh 30.06 in1017.9 mb 0.00 in0.0 mm 0.00 in0.0 mm 0.00 in0.0 mm
02:07 PM 61.5°F16.4°C 37.4°F3.0°C 41% 3.9 mph SSE6.3 kmh SSE 8.0 mph12.9 kmh 30.06 in1017.9 mb 0.00 in0.0 mm 0.00 in0.0 mm 0.00 in0.0 mm
02:12 PM 62.4°F16.9°C 38.2°F3.4°C 41% 2.7 mph NE4.3 kmh NE 8.0 mph12.9 kmh 30.06 in1017.9 mb 0.00 in0.0 mm 0.00 in0.0 mm 0.00 in0.0 mm
02:17 PM 61.7°F16.5°C 37.6°F3.1°C 41% 7.1 mph S11.4 kmh S 9.0 mph14.5 kmh 30.06 in1017.9 mb 0.00 in0.0 mm 0.00 in0.0 mm 0.00 in0.0 mm
02:22 PM 62.0°F16.7°C 37.9°F3.3°C 41% 6.5 mph E10.5 kmh E 13.4 mph21.6 kmh 30.03 in1016.9 mb 0.00 in0.0 mm 0.00 in0.0 mm 0.00 in0.0 mm
02:27 PM 62.0°F16.7°C 37.9°F3.3°C 41% 9.8 mph SE15.8 kmh SE 15.6 mph25.1 kmh 30.03 in1016.9 mb 0.00 in0.0 mm 0.00 in0.0 mm 0.00 in0.0 mm
02:32 PM 62.0°F16.7°C 38.5°F3.6°C 42% 7.5 mph S12.1 kmh S 15.6 mph25.1 kmh 30.03 in1016.9 mb 0.00 in0.0 mm 0.00 in0.0 mm 0.00 in0.0 mm
02:37 PM 62.9°F17.2°C 38.7°F3.7°C 41% 5.1 mph SSE8.2 kmh SSE 10.8 mph17.4 kmh 30.03 in1016.9 mb 0.00 in0.0 mm 0.00 in0.0 mm 0.00 in0.0 mm
02:42 PM 63.1°F17.3°C 38.9°F3.8°C 41% 4.6 mph SW7.4 kmh SW 8.6 mph13.8 kmh 30.03 in1016.9 mb 0.00 in0.0 mm 0.00 in0.0 mm 0.00 in0.0 mm
02:47 PM 63.3°F17.4°C 39.0°F3.9°C 41% 5.5 mph SSW8.9 kmh SSW 8.6 mph13.8 kmh 30.03 in1016.9 mb 0.00 in0.0 mm 0.00 in0.0 mm 0.00 in0.0 mm
02:52 PM 64.4°F18.0°C 39.4°F4.1°C 40% 6.8 mph SE10.9 kmh SE 10.8 mph17.4 kmh 30.00 in1015.9 mb 0.00 in0.0 mm 0.00 in0.0 mm 0.00 in0.0 mm
03:00 PM 65.5°F18.6°C 39.7°F4.3°C 39% 3.7 mph SSW6.0 kmh SSW 12.0 mph19.3 kmh 30.00 in1015.9 mb 0.00 in0.0 mm 0.00 in0.0 mm 0.00 in0.0 mm
03:05 PM 65.3°F18.5°C 40.2°F4.6°C 40% 3.8 mph SE6.1 kmh SE 12.0 mph19.3 kmh 30.00 in1015.9 mb 0.00 in0.0 mm 0.00 in0.0 mm 0.00 in0.0 mm
03:11 PM 66.0°F18.9°C 40.1°F4.5°C 39% 6.8 mph E10.9 kmh E 11.2 mph18.0 kmh 30.03 in1016.9 mb 0.00 in0.0 mm 0.00 in0.0 mm 0.00 in0.0 mm
03:16 PM 66.7°F19.3°C 41.4°F5.2°C 40% 3.1 mph SE5.0 kmh SE 11.2 mph18.0 kmh 30.03 in1016.9 mb 0.00 in0.0 mm 0.00 in0.0 mm 0.00 in0.0 mm
03:21 PM 66.9°F19.4°C 40.9°F4.9°C 39% 6.7 mph WSW10.8 kmh WSW 8.6 mph13.8 kmh 30.03 in1016.9 mb 0.00 in0.0 mm 0.00 in0.0 mm 0.00 in0.0 mm
03:26 PM 65.6°F18.7°C 39.8°F4.3°C 39% 5.9 mph WSW9.5 kmh WSW 8.6 mph13.8 kmh 30.03 in1016.9 mb 0.00 in0.0 mm 0.00 in0.0 mm 0.00 in0.0 mm
03:31 PM 65.6°F18.7°C 39.8°F4.3°C 39% 7.9 mph N12.7 kmh N 9.8 mph15.8 kmh 30.03 in1016.9 mb 0.00 in0.0 mm 0.00 in0.0 mm 0.00 in0.0 mm
03:36 PM 64.4°F18.0°C 38.7°F3.7°C 39% 5.1 mph S8.2 kmh S 9.8 mph15.8 kmh 30.03 in1016.9 mb 0.00 in0.0 mm 0.00 in0.0 mm 0.00 in0.0 mm
03:42 PM 62.2°F16.8°C 37.4°F3.0°C 40% 2.6 mph S4.2 kmh S 7.2 mph11.6 kmh 30.03 in1016.9 mb 0.00 in0.0 mm 0.00 in0.0 mm 0.00 in0.0 mm
03:47 PM 61.5°F16.4°C 37.4°F3.0°C 41% 3.7 mph WNW6.0 kmh WNW 5.4 mph8.7 kmh 30.03 in1016.9 mb 0.00 in0.0 mm 0.00 in0.0 mm 0.00 in0.0 mm
03:53 PM 61.5°F16.4°C 38.0°F3.3°C 42% 3.2 mph SW5.1 kmh SW 5.4 mph8.7 kmh 30.06 in1017.9 mb 0.00 in0.0 mm 0.00 in0.0 mm 0.00 in0.0 mm
03:58 PM 63.7°F17.6°C 40.0°F4.4°C 42% 3.1 mph NW5.0 kmh NW 5.4 mph8.7 kmh 30.06 in1017.9 mb 0.00 in0.0 mm 0.00 in0.0 mm 0.00 in0.0 mm
04:03 PM 66.5°F19.2°C 41.9°F5.5°C 41% 3.3 mph E5.3 kmh E 6.8 mph10.9 kmh 30.06 in1017.9 mb 0.00 in0.0 mm 0.00 in0.0 mm 0.00 in0.0 mm
04:08 PM 66.5°F19.2°C 41.3°F5.2°C 40% 4.5 mph WSW7.2 kmh WSW 7.6 mph12.2 kmh 30.03 in1016.9 mb 0.00 in0.0 mm 0.00 in0.0 mm 0.00 in0.0 mm
04:13 PM 67.4°F19.7°C 41.4°F5.2°C 39% 5.0 mph SSW8.0 kmh SSW 10.8 mph17.4 kmh 30.03 in1016.9 mb 0.00 in0.0 mm 0.00 in0.0 mm 0.00 in0.0 mm
04:18 PM 68.9°F20.5°C 42.7°F5.9°C 39% 5.1 mph E8.2 kmh E 10.8 mph17.4 kmh 30.03 in1016.9 mb 0.00 in0.0 mm 0.00 in0.0 mm 0.00 in0.0 mm
04:23 PM 68.5°F20.3°C 41.7°F5.4°C 38% 4.8 mph SW7.7 kmh SW 8.6 mph13.8 kmh 30.03 in1016.9 mb 0.00 in0.0 mm 0.00 in0.0 mm 0.00 in0.0 mm
04:28 PM 69.1°F20.6°C 42.2°F5.7°C 38% 4.9 mph NNW7.9 kmh NNW 8.6 mph13.8 kmh 30.03 in1016.9 mb 0.00 in0.0 mm 0.00 in0.0 mm 0.00 in0.0 mm
04:33 PM 70.1°F21.2°C 42.4°F5.8°C 37% 3.3 mph S5.3 kmh S 8.0 mph12.9 kmh 30.03 in1016.9 mb 0.00 in0.0 mm 0.00 in0.0 mm 0.00 in0.0 mm
04:38 PM 68.2°F20.1°C 41.4°F5.2°C 38% 4.7 mph E7.6 kmh E 8.0 mph12.9 kmh 30.03 in1016.9 mb 0.00 in0.0 mm 0.00 in0.0 mm 0.00 in0.0 mm
04:44 PM 65.1°F18.4°C 38.7°F3.7°C 38% 3.1 mph S5.0 kmh S 8.0 mph12.9 kmh 30.03 in1016.9 mb 0.00 in0.0 mm 0.00 in0.0 mm 0.00 in0.0 mm
04:49 PM 63.7°F17.6°C 38.1°F3.4°C 39% 5.4 mph SE8.7 kmh SE 7.6 mph12.2 kmh 30.03 in1016.9 mb 0.00 in0.0 mm 0.00 in0.0 mm 0.00 in0.0 mm
04:54 PM 62.4°F16.9°C 37.6°F3.1°C 40% 4.2 mph WSW6.8 kmh WSW 6.2 mph10.0 kmh 30.03 in1016.9 mb 0.00 in0.0 mm 0.00 in0.0 mm 0.00 in0.0 mm
04:59 PM 61.1°F16.2°C 37.1°F2.8°C 41% 4.4 mph W7.1 kmh W 6.2 mph10.0 kmh 30.03 in1016.9 mb 0.00 in0.0 mm 0.00 in0.0 mm 0.00 in0.0 mm
05:05 PM 60.6°F15.9°C 37.2°F2.9°C 42% 2.9 mph NW4.7 kmh NW 6.2 mph10.0 kmh 30.03 in1016.9 mb 0.00 in0.0 mm 0.00 in0.0 mm 0.00 in0.0 mm
05:10 PM 60.8°F16.0°C 37.4°F3.0°C 42% 2.7 mph S4.3 kmh S 5.8 mph9.3 kmh 30.03 in1016.9 mb 0.00 in0.0 mm 0.00 in0.0 mm 0.00 in0.0 mm
05:16 PM 61.0°F16.1°C 38.2°F3.4°C 43% 2.6 mph SSE4.2 kmh SSE 4.0 mph6.4 kmh 30.03 in1016.9 mb 0.00 in0.0 mm 0.00 in0.0 mm 0.00 in0.0 mm
05:21 PM 60.2°F15.7°C 38.1°F3.4°C 44% 3.7 mph SSE6.0 kmh SSE 4.4 mph7.1 kmh 30.03 in1016.9 mb 0.00 in0.0 mm 0.00 in0.0 mm 0.00 in0.0 mm
05:27 PM 59.8°F15.4°C 37.6°F3.1°C 44% 3.5 mph E5.6 kmh E 5.0 mph8.0 kmh 30.03 in1016.9 mb 0.00 in0.0 mm 0.00 in0.0 mm 0.00 in0.0 mm
05:32 PM 60.1°F15.6°C 38.0°F3.3°C 44% Calm Calm 5.0 mph8.0 kmh 30.03 in1016.9 mb 0.00 in0.0 mm 0.00 in0.0 mm 0.00 in0.0 mm
05:37 PM 59.8°F15.4°C 38.2°F3.4°C 45% 3.4 mph WNW5.5 kmh WNW 5.0 mph8.0 kmh 30.03 in1016.9 mb 0.00 in0.0 mm 0.00 in0.0 mm 0.00 in0.0 mm
05:42 PM 59.9°F15.5°C 38.4°F3.6°C 45% 2.5 mph WSW4.0 kmh WSW 5.0 mph8.0 kmh 30.03 in1016.9 mb 0.00 in0.0 mm 0.00 in0.0 mm 0.00 in0.0 mm
05:47 PM 59.8°F15.4°C 38.2°F3.4°C 45% 4.4 mph NNE7.1 kmh NNE 5.4 mph8.7 kmh 30.03 in1016.9 mb 0.00 in0.0 mm 0.00 in0.0 mm 0.00 in0.0 mm
05:52 PM 60.2°F15.7°C 38.7°F3.7°C 45% 2.2 mph E3.5 kmh E 5.4 mph8.7 kmh 30.03 in1016.9 mb 0.00 in0.0 mm 0.00 in0.0 mm 0.00 in0.0 mm
05:58 PM 59.9°F15.5°C 39.0°F3.9°C 46% 4.1 mph WNW6.6 kmh WNW 5.0 mph8.0 kmh 30.03 in1016.9 mb 0.00 in0.0 mm 0.00 in0.0 mm 0.00 in0.0 mm
06:03 PM 60.4°F15.8°C 38.9°F3.8°C 45% 3.6 mph S5.8 kmh S 5.0 mph8.0 kmh 30.03 in1016.9 mb 0.00 in0.0 mm 0.00 in0.0 mm 0.00 in0.0 mm
06:08 PM 60.4°F15.8°C 38.9°F3.8°C 45% 4.0 mph N6.4 kmh N 5.0 mph8.0 kmh 30.03 in1016.9 mb 0.00 in0.0 mm 0.00 in0.0 mm 0.00 in0.0 mm
06:13 PM 60.1°F15.6°C 38.6°F3.7°C 45% 2.7 mph NNE4.3 kmh NNE 6.2 mph10.0 kmh 30.03 in1016.9 mb 0.00 in0.0 mm 0.00 in0.0 mm 0.00 in0.0 mm
06:18 PM 59.8°F15.4°C 38.2°F3.4°C 45% 4.3 mph NE6.9 kmh NE 6.2 mph10.0 kmh 30.03 in1016.9 mb 0.00 in0.0 mm 0.00 in0.0 mm 0.00 in0.0 mm
06:23 PM 59.3°F15.2°C 37.8°F3.2°C 45% 2.6 mph ENE4.2 kmh ENE 5.0 mph8.0 kmh 30.03 in1016.9 mb 0.00 in0.0 mm 0.00 in0.0 mm 0.00 in0.0 mm
06:30 PM 58.2°F14.6°C 37.3°F2.9°C 46% Calm Calm 3.2 mph5.1 kmh 30.03 in1016.9 mb 0.00 in0.0 mm 0.00 in0.0 mm 0.00 in0.0 mm
06:35 PM 57.6°F14.2°C 36.8°F2.7°C 46% 2.1 mph SSE3.4 kmh SSE 2.6 mph4.2 kmh 30.03 in1016.9 mb 0.00 in0.0 mm 0.00 in0.0 mm 0.00 in0.0 mm
06:41 PM 57.3°F14.1°C 37.1°F2.8°C 47% Calm Calm 2.6 mph4.2 kmh 30.03 in1016.9 mb 0.00 in0.0 mm 0.00 in0.0 mm 0.00 in0.0 mm
06:46 PM 56.9°F13.8°C 37.3°F2.9°C 48% Calm Calm 2.6 mph4.2 kmh 30.03 in1016.9 mb 0.00 in0.0 mm 0.00 in0.0 mm 0.00 in0.0 mm
06:53 PM 56.6°F13.7°C 37.5°F3.1°C 49% Calm Calm -- 30.00 in1015.9 mb 0.00 in0.0 mm 0.00 in0.0 mm 0.00 in0.0 mm
06:58 PM 56.4°F13.6°C 38.4°F3.6°C 51% Calm Calm -- 30.00 in1015.9 mb 0.00 in0.0 mm 0.00 in0.0 mm 0.00 in0.0 mm
07:06 PM 56.0°F13.3°C 38.0°F3.3°C 51% Calm Calm -- 30.00 in1015.9 mb 0.00 in0.0 mm 0.00 in0.0 mm 0.00 in0.0 mm
07:11 PM 55.8°F13.2°C 38.4°F3.6°C 52% Calm Calm -- 30.00 in1015.9 mb 0.00 in0.0 mm 0.00 in0.0 mm 0.00 in0.0 mm
07:17 PM 55.5°F13.1°C 38.1°F3.4°C 52% Calm Calm -- 30.00 in1015.9 mb 0.00 in0.0 mm 0.00 in0.0 mm 0.00 in0.0 mm
07:22 PM 55.3°F12.9°C 37.9°F3.3°C 52% Calm Calm -- 30.00 in1015.9 mb 0.00 in0.0 mm 0.00 in0.0 mm 0.00 in0.0 mm
07:27 PM 55.3°F12.9°C 37.9°F3.3°C 52% 1.8 mph E2.9 kmh E 3.2 mph5.1 kmh 30.00 in1015.9 mb 0.00 in0.0 mm 0.00 in0.0 mm 0.00 in0.0 mm
07:32 PM 55.1°F12.8°C 38.2°F3.4°C 53% Calm Calm 3.2 mph5.1 kmh 30.00 in1015.9 mb 0.00 in0.0 mm 0.00 in0.0 mm 0.00 in0.0 mm
07:37 PM 54.9°F12.7°C 38.0°F3.3°C 53% Calm Calm -- 30.03 in1016.9 mb 0.00 in0.0 mm 0.00 in0.0 mm 0.00 in0.0 mm
07:42 PM 54.8°F12.7°C 37.9°F3.3°C 53% Calm Calm -- 30.03 in1016.9 mb 0.00 in0.0 mm 0.00 in0.0 mm 0.00 in0.0 mm
07:48 PM 54.8°F12.7°C 38.4°F3.6°C 54% Calm Calm -- 30.03 in1016.9 mb 0.00 in0.0 mm 0.00 in0.0 mm 0.00 in0.0 mm
07:53 PM 54.6°F12.6°C 38.2°F3.4°C 54% Calm Calm -- 30.03 in1016.9 mb 0.00 in0.0 mm 0.00 in0.0 mm 0.00 in0.0 mm
07:59 PM 54.6°F12.6°C 38.2°F3.4°C 54% Calm Calm -- 30.03 in1016.9 mb 0.00 in0.0 mm 0.00 in0.0 mm 0.00 in0.0 mm
08:04 PM 54.4°F12.4°C 38.5°F3.6°C 55% Calm Calm -- 30.03 in1016.9 mb 0.00 in0.0 mm 0.00 in0.0 mm 0.00 in0.0 mm
08:09 PM 54.4°F12.4°C 38.5°F3.6°C 55% Calm Calm -- 30.03 in1016.9 mb 0.00 in0.0 mm 0.00 in0.0 mm 0.00 in0.0 mm
08:15 PM 54.4°F12.4°C 38.5°F3.6°C 55% 2.0 mph E3.2 kmh E 2.2 mph3.5 kmh 30.03 in1016.9 mb 0.00 in0.0 mm 0.00 in0.0 mm 0.00 in0.0 mm
08:21 PM 54.4°F12.4°C 39.0°F3.9°C 56% Calm Calm 2.2 mph3.5 kmh 30.03 in1016.9 mb 0.00 in0.0 mm 0.00 in0.0 mm 0.00 in0.0 mm
08:26 PM 54.4°F12.4°C 39.0°F3.9°C 56% Calm Calm 2.2 mph3.5 kmh 30.06 in1017.9 mb 0.00 in0.0 mm 0.00 in0.0 mm 0.00 in0.0 mm
08:32 PM 54.4°F12.4°C 39.0°F3.9°C 56% Calm Calm -- 30.06 in1017.9 mb 0.00 in0.0 mm 0.00 in0.0 mm 0.00 in0.0 mm
08:37 PM 54.4°F12.4°C 39.5°F4.2°C 57% Calm Calm -- 30.06 in1017.9 mb 0.00 in0.0 mm 0.00 in0.0 mm 0.00 in0.0 mm
08:42 PM 54.2°F12.3°C 38.8°F3.8°C 56% Calm Calm -- 30.06 in1017.9 mb 0.00 in0.0 mm 0.00 in0.0 mm 0.00 in0.0 mm
08:47 PM 54.2°F12.3°C 39.3°F4.1°C 57% Calm Calm -- 30.06 in1017.9 mb 0.00 in0.0 mm 0.00 in0.0 mm 0.00 in0.0 mm
08:52 PM 54.2°F12.3°C 39.3°F4.1°C 57% Calm Calm -- 30.06 in1017.9 mb 0.00 in0.0 mm 0.00 in0.0 mm 0.00 in0.0 mm
08:57 PM 54.0°F12.2°C 39.1°F3.9°C 57% Calm Calm -- 30.06 in1017.9 mb 0.00 in0.0 mm 0.00 in0.0 mm 0.00 in0.0 mm
09:02 PM 54.0°F12.2°C 39.5°F4.2°C 58% Calm Calm -- 30.06 in1017.9 mb 0.00 in0.0 mm 0.00 in0.0 mm 0.00 in0.0 mm
09:07 PM 53.9°F12.2°C 39.4°F4.1°C 58% Calm Calm -- 30.09 in1019.0 mb 0.00 in0.0 mm 0.00 in0.0 mm 0.00 in0.0 mm
09:12 PM 53.9°F12.2°C 39.9°F4.4°C 59% Calm Calm -- 30.09 in1019.0 mb 0.00 in0.0 mm 0.00 in0.0 mm 0.00 in0.0 mm
09:17 PM 53.7°F12.1°C 39.7°F4.3°C 59% Calm Calm -- 30.09 in1019.0 mb 0.00 in0.0 mm 0.00 in0.0 mm 0.00 in0.0 mm
09:22 PM 53.7°F12.1°C 39.7°F4.3°C 59% Calm Calm -- 30.09 in1019.0 mb 0.00 in0.0 mm 0.00 in0.0 mm 0.00 in0.0 mm
09:27 PM 53.7°F12.1°C 40.1°F4.5°C 60% Calm Calm -- 30.09 in1019.0 mb 0.00 in0.0 mm 0.00 in0.0 mm 0.00 in0.0 mm
09:32 PM 53.5°F11.9°C 40.0°F4.4°C 60% Calm Calm -- 30.09 in1019.0 mb 0.00 in0.0 mm 0.00 in0.0 mm 0.00 in0.0 mm
09:37 PM 53.5°F11.9°C 40.0°F4.4°C 60% 2.5 mph NE4.0 kmh NE 4.0 mph6.4 kmh 30.09 in1019.0 mb 0.00 in0.0 mm 0.00 in0.0 mm 0.00 in0.0 mm
09:43 PM 53.5°F11.9°C 40.4°F4.7°C 61% 2.3 mph NE3.7 kmh NE 4.0 mph6.4 kmh 30.09 in1019.0 mb 0.00 in0.0 mm 0.00 in0.0 mm 0.00 in0.0 mm
09:48 PM 53.3°F11.8°C 40.6°F4.8°C 62% 2.1 mph NE3.4 kmh NE 3.2 mph5.1 kmh 30.09 in1019.0 mb 0.00 in0.0 mm 0.00 in0.0 mm 0.00 in0.0 mm
09:53 PM 53.3°F11.8°C 41.0°F5.0°C 63% 6.7 mph NNE10.8 kmh NNE 8.6 mph13.8 kmh 30.09 in1019.0 mb 0.00 in0.0 mm 0.00 in0.0 mm 0.00 in0.0 mm
09:58 PM 53.1°F11.7°C 41.3°F5.2°C 64% 2.9 mph NNE4.7 kmh NNE 8.6 mph13.8 kmh 30.09 in1019.0 mb 0.00 in0.0 mm 0.00 in0.0 mm 0.00 in0.0 mm
10:03 PM 53.1°F11.7°C 41.3°F5.2°C 64% 3.0 mph NNE4.8 kmh NNE 7.2 mph11.6 kmh 30.09 in1019.0 mb 0.00 in0.0 mm 0.00 in0.0 mm 0.00 in0.0 mm
10:08 PM 53.0°F11.7°C 41.6°F5.3°C 65% 3.9 mph NNE6.3 kmh NNE 5.0 mph8.0 kmh 30.06 in1017.9 mb 0.00 in0.0 mm 0.00 in0.0 mm 0.00 in0.0 mm
10:14 PM 53.0°F11.7°C 41.6°F5.3°C 65% Calm Calm 5.0 mph8.0 kmh 30.06 in1017.9 mb 0.00 in0.0 mm 0.00 in0.0 mm 0.00 in0.0 mm
10:19 PM 52.8°F11.6°C 41.8°F5.4°C 66% Calm Calm 1.8 mph2.9 kmh 30.06 in1017.9 mb 0.00 in0.0 mm 0.00 in0.0 mm 0.00 in0.0 mm
10:25 PM 52.8°F11.6°C 41.8°F5.4°C 66% 2.1 mph NE3.4 kmh NE 3.2 mph5.1 kmh 30.06 in1017.9 mb 0.00 in0.0 mm 0.00 in0.0 mm 0.00 in0.0 mm
10:30 PM 52.6°F11.4°C 42.0°F5.6°C 67% 2.8 mph NE4.5 kmh NE 4.0 mph6.4 kmh 30.06 in1017.9 mb 0.00 in0.0 mm 0.00 in0.0 mm 0.00 in0.0 mm
10:38 PM 52.4°F11.3°C 42.2°F5.7°C 68% Calm Calm 3.2 mph5.1 kmh 30.09 in1019.0 mb 0.00 in0.0 mm 0.00 in0.0 mm 0.00 in0.0 mm
10:43 PM 52.4°F11.3°C 42.2°F5.7°C 68% 3.4 mph N5.5 kmh N 5.0 mph8.0 kmh 30.09 in1019.0 mb 0.00 in0.0 mm 0.00 in0.0 mm 0.00 in0.0 mm
10:48 PM 52.2°F11.2°C 42.4°F5.8°C 69% 2.1 mph 3.4 kmh 5.4 mph8.7 kmh 30.09 in1019.0 mb 0.00 in0.0 mm 0.00 in0.0 mm 0.00 in0.0 mm
10:53 PM 52.2°F11.2°C 42.4°F5.8°C 69% Calm Calm 5.4 mph8.7 kmh 30.12 in1020.0 mb 0.00 in0.0 mm 0.00 in0.0 mm 0.00 in0.0 mm
11:00 PM 52.1°F11.2°C 42.6°F5.9°C 70% Calm Calm -- 30.12 in1020.0 mb 0.00 in0.0 mm 0.00 in0.0 mm 0.00 in0.0 mm
11:05 PM 52.1°F11.2°C 42.6°F5.9°C 70% Calm Calm -- 30.12 in1020.0 mb 0.00 in0.0 mm 0.00 in0.0 mm 0.00 in0.0 mm
11:10 PM 51.9°F11.1°C 42.4°F5.8°C 70% Calm Calm -- 30.12 in1020.0 mb 0.00 in0.0 mm 0.00 in0.0 mm 0.00 in0.0 mm
11:15 PM 51.9°F11.1°C 42.4°F5.8°C 70% Calm Calm -- 30.12 in1020.0 mb 0.00 in0.0 mm 0.00 in0.0 mm 0.00 in0.0 mm
11:21 PM 51.7°F10.9°C 43.3°F6.3°C 73% 2.9 mph E4.7 kmh E 4.0 mph6.4 kmh 30.12 in1020.0 mb 0.00 in0.0 mm 0.00 in0.0 mm 0.00 in0.0 mm
11:26 PM 51.5°F10.8°C 42.8°F6.0°C 72% 2.4 mph SE3.9 kmh SE 4.0 mph6.4 kmh 30.12 in1020.0 mb 0.00 in0.0 mm 0.00 in0.0 mm 0.00 in0.0 mm
11:31 PM 51.5°F10.8°C 42.8°F6.0°C 72% 2.3 mph SE3.7 kmh SE 4.0 mph6.4 kmh 30.12 in1020.0 mb 0.00 in0.0 mm 0.00 in0.0 mm 0.00 in0.0 mm
11:36 PM 51.5°F10.8°C 43.1°F6.2°C 73% Calm Calm 3.2 mph5.1 kmh 30.12 in1020.0 mb 0.00 in0.0 mm 0.00 in0.0 mm 0.00 in0.0 mm
11:41 PM 51.3°F10.7°C 43.3°F6.3°C 74% 3.2 mph ESE5.1 kmh ESE 3.2 mph5.1 kmh 30.12 in1020.0 mb 0.00 in0.0 mm 0.00 in0.0 mm 0.00 in0.0 mm
11:46 PM 51.2°F10.7°C 43.2°F6.2°C 74% Calm Calm 3.2 mph5.1 kmh 30.12 in1020.0 mb 0.00 in0.0 mm 0.00 in0.0 mm 0.00 in0.0 mm
11:51 PM 51.0°F10.6°C 43.0°F6.1°C 74% 2.4 mph ESE3.9 kmh ESE 3.2 mph5.1 kmh 30.12 in1020.0 mb 0.00 in0.0 mm 0.00 in0.0 mm 0.00 in0.0 mm
11:56 PM 51.2°F10.7°C 43.2°F6.2°C 74% Calm Calm 3.2 mph5.1 kmh 30.15 in1021.0 mb 0.00 in0.0 mm 0.00 in0.0 mm 0.00 in0.0 mm